sensor_id;sensor_type;location;lat;lon;timestamp;P1;durP1;ratioP1;P2;durP2;ratioP2
20986;SDS011;10652;50.306;8.570;2023-04-12T00:01:18;3.83;;;1.10;;
20986;SDS011;10652;50.306;8.570;2023-04-12T00:05:20;4.95;;;1.15;;
20986;SDS011;10652;50.306;8.570;2023-04-12T00:09:28;3.58;;;1.10;;
20986;SDS011;10652;50.306;8.570;2023-04-12T00:13:31;4.47;;;1.15;;
20986;SDS011;10652;50.306;8.570;2023-04-12T00:17:33;5.30;;;1.10;;
20986;SDS011;10652;50.306;8.570;2023-04-12T00:21:35;6.60;;;1.30;;
20986;SDS011;10652;50.306;8.570;2023-04-12T00:25:37;6.20;;;1.25;;
20986;SDS011;10652;50.306;8.570;2023-04-12T00:29:40;8.23;;;1.38;;
20986;SDS011;10652;50.306;8.570;2023-04-12T00:33:43;6.68;;;1.50;;
20986;SDS011;10652;50.306;8.570;2023-04-12T00:37:45;3.53;;;1.08;;
20986;SDS011;10652;50.306;8.570;2023-04-12T00:41:47;6.03;;;1.17;;
20986;SDS011;10652;50.306;8.570;2023-04-12T00:45:49;6.10;;;1.33;;
20986;SDS011;10652;50.306;8.570;2023-04-12T00:49:51;4.40;;;1.30;;
20986;SDS011;10652;50.306;8.570;2023-04-12T00:53:55;3.80;;;1.30;;
20986;SDS011;10652;50.306;8.570;2023-04-12T00:58:00;3.37;;;1.00;;
20986;SDS011;10652;50.306;8.570;2023-04-12T01:02:02;4.50;;;1.60;;
20986;SDS011;10652;50.306;8.570;2023-04-12T01:06:09;5.43;;;1.20;;
20986;SDS011;10652;50.306;8.570;2023-04-12T01:10:21;5.15;;;1.25;;
20986;SDS011;10652;50.306;8.570;2023-04-12T01:19:02;8.85;;;1.92;;
20986;SDS011;10652;50.306;8.570;2023-04-12T01:28:00;3.88;;;1.30;;
20986;SDS011;10652;50.306;8.570;2023-04-12T01:32:05;6.53;;;1.48;;
20986;SDS011;10652;50.306;8.570;2023-04-12T01:36:14;3.85;;;1.35;;
20986;SDS011;10652;50.306;8.570;2023-04-12T01:40:19;4.95;;;1.33;;
20986;SDS011;10652;50.306;8.570;2023-04-12T01:44:21;4.43;;;1.10;;
20986;SDS011;10652;50.306;8.570;2023-04-12T01:48:24;4.97;;;1.13;;
20986;SDS011;10652;50.306;8.570;2023-04-12T01:52:27;3.85;;;1.25;;
20986;SDS011;10652;50.306;8.570;2023-04-12T01:56:36;4.32;;;1.20;;
20986;SDS011;10652;50.306;8.570;2023-04-12T02:00:41;4.47;;;1.00;;
20986;SDS011;10652;50.306;8.570;2023-04-12T02:04:45;6.13;;;1.35;;
20986;SDS011;10652;50.306;8.570;2023-04-12T02:08:48;3.35;;;1.30;;
20986;SDS011;10652;50.306;8.570;2023-04-12T02:12:50;3.13;;;1.23;;
20986;SDS011;10652;50.306;8.570;2023-04-12T02:16:52;5.28;;;1.50;;
20986;SDS011;10652;50.306;8.570;2023-04-12T02:20:55;4.03;;;1.30;;
20986;SDS011;10652;50.306;8.570;2023-04-12T02:24:57;3.38;;;1.30;;
20986;SDS011;10652;50.306;8.570;2023-04-12T02:29:00;5.40;;;1.58;;
20986;SDS011;10652;50.306;8.570;2023-04-12T02:33:02;4.45;;;1.48;;
20986;SDS011;10652;50.306;8.570;2023-04-12T02:37:09;4.47;;;1.30;;
20986;SDS011;10652;50.306;8.570;2023-04-12T02:41:17;5.75;;;1.52;;
20986;SDS011;10652;50.306;8.570;2023-04-12T02:45:21;3.38;;;1.58;;
20986;SDS011;10652;50.306;8.570;2023-04-12T02:49:25;4.30;;;1.77;;
20986;SDS011;10652;50.306;8.570;2023-04-12T02:53:28;5.22;;;1.50;;
20986;SDS011;10652;50.306;8.570;2023-04-12T02:57:44;2.40;;;1.52;;
20986;SDS011;10652;50.306;8.570;2023-04-12T03:01:46;4.38;;;1.60;;
20986;SDS011;10652;50.306;8.570;2023-04-12T03:06:01;4.43;;;1.60;;
20986;SDS011;10652;50.306;8.570;2023-04-12T03:10:03;4.30;;;1.92;;
20986;SDS011;10652;50.306;8.570;2023-04-12T03:14:11;4.25;;;1.90;;
20986;SDS011;10652;50.306;8.570;2023-04-12T03:18:15;4.38;;;1.90;;
20986;SDS011;10652;50.306;8.570;2023-04-12T03:22:21;4.07;;;1.83;;
20986;SDS011;10652;50.306;8.570;2023-04-12T03:30:34;4.65;;;1.80;;
20986;SDS011;10652;50.306;8.570;2023-04-12T03:34:36;4.03;;;2.10;;
20986;SDS011;10652;50.306;8.570;2023-04-12T03:38:45;4.20;;;2.17;;
20986;SDS011;10652;50.306;8.570;2023-04-12T03:42:48;5.82;;;2.38;;
20986;SDS011;10652;50.306;8.570;2023-04-12T03:46:50;4.90;;;1.90;;
20986;SDS011;10652;50.306;8.570;2023-04-12T03:50:53;2.63;;;1.95;;
20986;SDS011;10652;50.306;8.570;2023-04-12T03:54:56;4.22;;;2.00;;
20986;SDS011;10652;50.306;8.570;2023-04-12T03:59:01;7.35;;;2.15;;
20986;SDS011;10652;50.306;8.570;2023-04-12T04:03:04;3.47;;;2.00;;
20986;SDS011;10652;50.306;8.570;2023-04-12T04:07:13;3.13;;;1.88;;
20986;SDS011;10652;50.306;8.570;2023-04-12T04:11:19;3.70;;;2.42;;
20986;SDS011;10652;50.306;8.570;2023-04-12T04:15:25;5.63;;;2.60;;
20986;SDS011;10652;50.306;8.570;2023-04-12T04:19:28;4.75;;;2.88;;
20986;SDS011;10652;50.306;8.570;2023-04-12T04:23:31;3.72;;;3.08;;
20986;SDS011;10652;50.306;8.570;2023-04-12T04:27:40;3.80;;;3.08;;
20986;SDS011;10652;50.306;8.570;2023-04-12T04:31:45;4.18;;;2.88;;
20986;SDS011;10652;50.306;8.570;2023-04-12T04:35:49;4.78;;;3.10;;
20986;SDS011;10652;50.306;8.570;2023-04-12T04:39:59;3.38;;;2.80;;
20986;SDS011;10652;50.306;8.570;2023-04-12T04:44:15;3.53;;;2.38;;
20986;SDS011;10652;50.306;8.570;2023-04-12T04:48:27;3.75;;;2.40;;
20986;SDS011;10652;50.306;8.570;2023-04-12T04:52:30;3.38;;;2.47;;
20986;SDS011;10652;50.306;8.570;2023-04-12T04:56:38;3.65;;;2.60;;
20986;SDS011;10652;50.306;8.570;2023-04-12T05:00:40;1.83;;;1.67;;
20986;SDS011;10652;50.306;8.570;2023-04-12T05:04:46;3.08;;;2.20;;
20986;SDS011;10652;50.306;8.570;2023-04-12T05:08:52;2.67;;;2.47;;
20986;SDS011;10652;50.306;8.570;2023-04-12T05:12:55;2.67;;;1.90;;
20986;SDS011;10652;50.306;8.570;2023-04-12T05:16:58;4.55;;;2.45;;
20986;SDS011;10652;50.306;8.570;2023-04-12T05:21:01;3.78;;;2.30;;
20986;SDS011;10652;50.306;8.570;2023-04-12T05:25:06;3.38;;;2.30;;
20986;SDS011;10652;50.306;8.570;2023-04-12T05:29:15;4.20;;;2.10;;
20986;SDS011;10652;50.306;8.570;2023-04-12T05:33:17;3.42;;;2.25;;
20986;SDS011;10652;50.306;8.570;2023-04-12T05:37:21;3.38;;;2.13;;
20986;SDS011;10652;50.306;8.570;2023-04-12T05:41:23;2.97;;;1.98;;
20986;SDS011;10652;50.306;8.570;2023-04-12T05:45:25;2.10;;;1.80;;
20986;SDS011;10652;50.306;8.570;2023-04-12T05:49:28;3.17;;;1.90;;
20986;SDS011;10652;50.306;8.570;2023-04-12T05:53:33;3.75;;;1.70;;
20986;SDS011;10652;50.306;8.570;2023-04-12T05:57:38;2.22;;;1.42;;
20986;SDS011;10652;50.306;8.570;2023-04-12T06:01:41;3.33;;;1.45;;
20986;SDS011;10652;50.306;8.570;2023-04-12T06:05:43;2.33;;;1.45;;
20986;SDS011;10652;50.306;8.570;2023-04-12T06:09:45;2.45;;;1.42;;
20986;SDS011;10652;50.306;8.570;2023-04-12T06:13:48;1.45;;;1.10;;
20986;SDS011;10652;50.306;8.570;2023-04-12T06:17:50;2.13;;;1.20;;
20986;SDS011;10652;50.306;8.570;2023-04-12T06:21:52;1.58;;;1.20;;
20986;SDS011;10652;50.306;8.570;2023-04-12T06:25:55;2.38;;;1.10;;
20986;SDS011;10652;50.306;8.570;2023-04-12T06:29:57;2.10;;;1.20;;
20986;SDS011;10652;50.306;8.570;2023-04-12T06:33:59;2.42;;;1.10;;
20986;SDS011;10652;50.306;8.570;2023-04-12T06:38:02;1.88;;;1.17;;
20986;SDS011;10652;50.306;8.570;2023-04-12T06:42:04;1.67;;;0.98;;
20986;SDS011;10652;50.306;8.570;2023-04-12T06:46:06;2.70;;;1.30;;
20986;SDS011;10652;50.306;8.570;2023-04-12T06:50:09;2.15;;;1.10;;
20986;SDS011;10652;50.306;8.570;2023-04-12T06:54:12;1.50;;;1.00;;
20986;SDS011;10652;50.306;8.570;2023-04-12T06:58:14;2.25;;;1.15;;
20986;SDS011;10652;50.306;8.570;2023-04-12T07:02:17;1.60;;;0.93;;
20986;SDS011;10652;50.306;8.570;2023-04-12T07:06:19;1.52;;;1.08;;
20986;SDS011;10652;50.306;8.570;2023-04-12T07:14:28;1.60;;;1.17;;
20986;SDS011;10652;50.306;8.570;2023-04-12T07:18:30;2.00;;;0.90;;
20986;SDS011;10652;50.306;8.570;2023-04-12T07:22:32;1.27;;;1.13;;
20986;SDS011;10652;50.306;8.570;2023-04-12T07:26:34;1.52;;;1.02;;
20986;SDS011;10652;50.306;8.570;2023-04-12T07:30:39;1.58;;;1.00;;
20986;SDS011;10652;50.306;8.570;2023-04-12T07:34:42;1.58;;;1.00;;
20986;SDS011;10652;50.306;8.570;2023-04-12T07:38:44;0.98;;;0.80;;
20986;SDS011;10652;50.306;8.570;2023-04-12T07:42:46;1.60;;;1.10;;
20986;SDS011;10652;50.306;8.570;2023-04-12T07:46:48;2.15;;;1.58;;
20986;SDS011;10652;50.306;8.570;2023-04-12T07:50:50;1.90;;;1.13;;
20986;SDS011;10652;50.306;8.570;2023-04-12T07:54:53;1.58;;;0.90;;
20986;SDS011;10652;50.306;8.570;2023-04-12T07:58:55;2.20;;;1.00;;
20986;SDS011;10652;50.306;8.570;2023-04-12T08:02:58;1.30;;;1.00;;
20986;SDS011;10652;50.306;8.570;2023-04-12T08:07:01;0.80;;;0.80;;
20986;SDS011;10652;50.306;8.570;2023-04-12T08:11:03;1.75;;;0.85;;
20986;SDS011;10652;50.306;8.570;2023-04-12T08:15:07;1.73;;;0.95;;
20986;SDS011;10652;50.306;8.570;2023-04-12T08:19:10;1.10;;;0.80;;
20986;SDS011;10652;50.306;8.570;2023-04-12T08:23:12;0.60;;;0.60;;
20986;SDS011;10652;50.306;8.570;2023-04-12T08:27:14;1.52;;;1.00;;
20986;SDS011;10652;50.306;8.570;2023-04-12T08:31:17;1.10;;;1.00;;
20986;SDS011;10652;50.306;8.570;2023-04-12T08:35:20;1.00;;;0.90;;
20986;SDS011;10652;50.306;8.570;2023-04-12T08:39:23;0.88;;;0.80;;
20986;SDS011;10652;50.306;8.570;2023-04-12T08:43:26;1.25;;;1.10;;
20986;SDS011;10652;50.306;8.570;2023-04-12T08:47:29;1.33;;;1.23;;
20986;SDS011;10652;50.306;8.570;2023-04-12T08:51:33;0.80;;;0.80;;
20986;SDS011;10652;50.306;8.570;2023-04-12T08:55:37;1.30;;;1.00;;
20986;SDS011;10652;50.306;8.570;2023-04-12T08:59:40;2.60;;;1.40;;
20986;SDS011;10652;50.306;8.570;2023-04-12T09:03:44;1.50;;;1.10;;
20986;SDS011;10652;50.306;8.570;2023-04-12T09:07:47;0.80;;;0.70;;
20986;SDS011;10652;50.306;8.570;2023-04-12T09:11:49;0.95;;;0.85;;
20986;SDS011;10652;50.306;8.570;2023-04-12T09:15:51;1.70;;;1.20;;
20986;SDS011;10652;50.306;8.570;2023-04-12T09:19:53;1.58;;;0.90;;
20986;SDS011;10652;50.306;8.570;2023-04-12T09:24:06;1.77;;;1.00;;
20986;SDS011;10652;50.306;8.570;2023-04-12T09:28:17;1.65;;;1.00;;
20986;SDS011;10652;50.306;8.570;2023-04-12T09:32:26;2.05;;;1.10;;
20986;SDS011;10652;50.306;8.570;2023-04-12T09:36:36;1.55;;;1.02;;
20986;SDS011;10652;50.306;8.570;2023-04-12T09:40:39;1.58;;;1.23;;
20986;SDS011;10652;50.306;8.570;2023-04-12T09:44:41;2.17;;;1.00;;
20986;SDS011;10652;50.306;8.570;2023-04-12T09:48:50;1.00;;;0.80;;
20986;SDS011;10652;50.306;8.570;2023-04-12T09:52:53;1.15;;;0.90;;
20986;SDS011;10652;50.306;8.570;2023-04-12T09:56:57;1.58;;;0.90;;
20986;SDS011;10652;50.306;8.570;2023-04-12T10:00:59;1.13;;;0.98;;
20986;SDS011;10652;50.306;8.570;2023-04-12T10:05:03;0.65;;;0.50;;
20986;SDS011;10652;50.306;8.570;2023-04-12T10:09:06;1.02;;;0.80;;
20986;SDS011;10652;50.306;8.570;2023-04-12T10:13:09;0.70;;;0.70;;
20986;SDS011;10652;50.306;8.570;2023-04-12T10:17:13;1.27;;;0.70;;
20986;SDS011;10652;50.306;8.570;2023-04-12T10:21:15;1.08;;;0.77;;
20986;SDS011;10652;50.306;8.570;2023-04-12T10:25:22;0.95;;;0.95;;
20986;SDS011;10652;50.306;8.570;2023-04-12T10:29:27;1.83;;;0.90;;
20986;SDS011;10652;50.306;8.570;2023-04-12T10:33:31;1.02;;;0.93;;
20986;SDS011;10652;50.306;8.570;2023-04-12T10:50:40;0.65;;;0.60;;
20986;SDS011;10652;50.306;8.570;2023-04-12T10:54:42;1.30;;;1.20;;
20986;SDS011;10652;50.306;8.570;2023-04-12T11:03:06;1.80;;;0.75;;
20986;SDS011;10652;50.306;8.570;2023-04-12T11:07:13;1.65;;;0.70;;
20986;SDS011;10652;50.306;8.570;2023-04-12T11:11:38;0.82;;;0.68;;
20986;SDS011;10652;50.306;8.570;2023-04-12T11:15:42;1.00;;;0.82;;
20986;SDS011;10652;50.306;8.570;2023-04-12T11:19:55;0.70;;;0.70;;
20986;SDS011;10652;50.306;8.570;2023-04-12T11:23:59;0.70;;;0.70;;
20986;SDS011;10652;50.306;8.570;2023-04-12T11:28:01;0.95;;;0.90;;
20986;SDS011;10652;50.306;8.570;2023-04-12T11:32:08;1.13;;;0.90;;
20986;SDS011;10652;50.306;8.570;2023-04-12T11:36:13;1.20;;;0.70;;
20986;SDS011;10652;50.306;8.570;2023-04-12T11:40:15;1.30;;;1.15;;
20986;SDS011;10652;50.306;8.570;2023-04-12T11:44:17;0.98;;;0.60;;
20986;SDS011;10652;50.306;8.570;2023-04-12T11:48:20;0.80;;;0.70;;
20986;SDS011;10652;50.306;8.570;2023-04-12T11:52:29;1.45;;;0.60;;
20986;SDS011;10652;50.306;8.570;2023-04-12T11:56:32;0.90;;;0.80;;
20986;SDS011;10652;50.306;8.570;2023-04-12T12:00:34;0.50;;;0.50;;
20986;SDS011;10652;50.306;8.570;2023-04-12T12:04:37;0.50;;;0.47;;
20986;SDS011;10652;50.306;8.570;2023-04-12T12:08:41;0.65;;;0.40;;
20986;SDS011;10652;50.306;8.570;2023-04-12T12:12:44;0.40;;;0.30;;
20986;SDS011;10652;50.306;8.570;2023-04-12T12:16:55;1.02;;;0.70;;
20986;SDS011;10652;50.306;8.570;2023-04-12T12:20:59;0.88;;;0.60;;
20986;SDS011;10652;50.306;8.570;2023-04-12T12:25:02;0.70;;;0.50;;
20986;SDS011;10652;50.306;8.570;2023-04-12T12:29:04;0.47;;;0.43;;
20986;SDS011;10652;50.306;8.570;2023-04-12T12:33:06;0.40;;;0.35;;
20986;SDS011;10652;50.306;8.570;2023-04-12T12:37:11;0.50;;;0.50;;
20986;SDS011;10652;50.306;8.570;2023-04-12T12:41:21;0.50;;;0.30;;
20986;SDS011;10652;50.306;8.570;2023-04-12T12:45:25;0.68;;;0.30;;
20986;SDS011;10652;50.306;8.570;2023-04-12T12:49:28;1.17;;;0.20;;
20986;SDS011;10652;50.306;8.570;2023-04-12T12:53:30;0.80;;;0.20;;
20986;SDS011;10652;50.306;8.570;2023-04-12T12:57:32;0.32;;;0.32;;
20986;SDS011;10652;50.306;8.570;2023-04-12T13:01:36;0.57;;;0.30;;
20986;SDS011;10652;50.306;8.570;2023-04-12T13:05:38;0.40;;;0.30;;
20986;SDS011;10652;50.306;8.570;2023-04-12T13:09:40;1.00;;;0.50;;
20986;SDS011;10652;50.306;8.570;2023-04-12T13:13:42;0.57;;;0.50;;
20986;SDS011;10652;50.306;8.570;2023-04-12T13:17:44;0.40;;;0.40;;
20986;SDS011;10652;50.306;8.570;2023-04-12T13:21:46;0.55;;;0.40;;
20986;SDS011;10652;50.306;8.570;2023-04-12T13:25:51;1.33;;;0.70;;
20986;SDS011;10652;50.306;8.570;2023-04-12T13:29:53;1.05;;;0.73;;
20986;SDS011;10652;50.306;8.570;2023-04-12T13:33:58;0.90;;;0.90;;
20986;SDS011;10652;50.306;8.570;2023-04-12T13:38:00;0.82;;;0.50;;
20986;SDS011;10652;50.306;8.570;2023-04-12T13:42:03;1.20;;;0.75;;
20986;SDS011;10652;50.306;8.570;2023-04-12T13:46:05;0.85;;;0.60;;
20986;SDS011;10652;50.306;8.570;2023-04-12T13:50:08;1.88;;;0.70;;
20986;SDS011;10652;50.306;8.570;2023-04-12T13:54:10;0.40;;;0.40;;
20986;SDS011;10652;50.306;8.570;2023-04-12T13:58:12;1.13;;;0.50;;
20986;SDS011;10652;50.306;8.570;2023-04-12T14:02:14;0.70;;;0.50;;
20986;SDS011;10652;50.306;8.570;2023-04-12T14:06:17;0.60;;;0.60;;
20986;SDS011;10652;50.306;8.570;2023-04-12T14:10:19;9.70;;;2.80;;
20986;SDS011;10652;50.306;8.570;2023-04-12T14:14:21;3.78;;;2.05;;
20986;SDS011;10652;50.306;8.570;2023-04-12T14:18:23;1.33;;;1.08;;
20986;SDS011;10652;50.306;8.570;2023-04-12T14:22:25;1.70;;;1.10;;
20986;SDS011;10652;50.306;8.570;2023-04-12T14:26:27;2.33;;;1.67;;
20986;SDS011;10652;50.306;8.570;2023-04-12T14:30:30;2.42;;;1.52;;
20986;SDS011;10652;50.306;8.570;2023-04-12T14:34:32;2.13;;;1.20;;
20986;SDS011;10652;50.306;8.570;2023-04-12T14:38:35;1.25;;;1.10;;
20986;SDS011;10652;50.306;8.570;2023-04-12T14:42:37;1.10;;;1.00;;
20986;SDS011;10652;50.306;8.570;2023-04-12T14:46:39;1.27;;;0.90;;
20986;SDS011;10652;50.306;8.570;2023-04-12T14:50:41;1.63;;;0.80;;
20986;SDS011;10652;50.306;8.570;2023-04-12T14:54:43;0.77;;;0.77;;
20986;SDS011;10652;50.306;8.570;2023-04-12T14:58:45;0.60;;;0.60;;
20986;SDS011;10652;50.306;8.570;2023-04-12T15:02:47;1.80;;;0.80;;
20986;SDS011;10652;50.306;8.570;2023-04-12T15:06:50;0.85;;;0.40;;
20986;SDS011;10652;50.306;8.570;2023-04-12T15:10:52;0.30;;;0.20;;
20986;SDS011;10652;50.306;8.570;2023-04-12T15:14:54;1.13;;;0.30;;
20986;SDS011;10652;50.306;8.570;2023-04-12T15:18:58;0.70;;;0.47;;
20986;SDS011;10652;50.306;8.570;2023-04-12T15:23:07;0.35;;;0.20;;
20986;SDS011;10652;50.306;8.570;2023-04-12T15:27:09;6.05;;;0.73;;
20986;SDS011;10652;50.306;8.570;2023-04-12T15:31:11;2.97;;;0.32;;
20986;SDS011;10652;50.306;8.570;2023-04-12T15:35:14;0.73;;;0.10;;
20986;SDS011;10652;50.306;8.570;2023-04-12T15:39:27;0.73;;;0.38;;
20986;SDS011;10652;50.306;8.570;2023-04-12T15:43:29;2.45;;;1.20;;
20986;SDS011;10652;50.306;8.570;2023-04-12T15:47:31;0.75;;;0.30;;
20986;SDS011;10652;50.306;8.570;2023-04-12T15:51:33;0.30;;;0.20;;
20986;SDS011;10652;50.306;8.570;2023-04-12T15:55:41;0.80;;;0.40;;
20986;SDS011;10652;50.306;8.570;2023-04-12T15:59:44;0.32;;;0.20;;
20986;SDS011;10652;50.306;8.570;2023-04-12T16:03:46;1.55;;;0.30;;
20986;SDS011;10652;50.306;8.570;2023-04-12T16:07:50;1.63;;;0.40;;
20986;SDS011;10652;50.306;8.570;2023-04-12T16:11:52;1.00;;;0.70;;
20986;SDS011;10652;50.306;8.570;2023-04-12T16:15:54;0.77;;;0.57;;
20986;SDS011;10652;50.306;8.570;2023-04-12T16:19:56;1.15;;;0.77;;
20986;SDS011;10652;50.306;8.570;2023-04-12T16:23:59;1.00;;;0.60;;
20986;SDS011;10652;50.306;8.570;2023-04-12T16:28:01;1.65;;;0.60;;
20986;SDS011;10652;50.306;8.570;2023-04-12T16:32:04;0.80;;;0.70;;
20986;SDS011;10652;50.306;8.570;2023-04-12T16:36:08;2.10;;;0.95;;
20986;SDS011;10652;50.306;8.570;2023-04-12T16:40:10;1.50;;;1.13;;
20986;SDS011;10652;50.306;8.570;2023-04-12T16:44:15;0.95;;;0.45;;
20986;SDS011;10652;50.306;8.570;2023-04-12T16:48:19;0.50;;;0.30;;
20986;SDS011;10652;50.306;8.570;2023-04-12T16:52:23;0.43;;;0.40;;
20986;SDS011;10652;50.306;8.570;2023-04-12T16:56:25;2.95;;;0.35;;
20986;SDS011;10652;50.306;8.570;2023-04-12T17:00:27;0.35;;;0.10;;
20986;SDS011;10652;50.306;8.570;2023-04-12T17:04:30;0.52;;;0.20;;
20986;SDS011;10652;50.306;8.570;2023-04-12T17:08:32;1.00;;;0.10;;
20986;SDS011;10652;50.306;8.570;2023-04-12T17:12:34;0.13;;;0.10;;
20986;SDS011;10652;50.306;8.570;2023-04-12T17:16:36;0.30;;;0.28;;
20986;SDS011;10652;50.306;8.570;2023-04-12T17:20:39;0.45;;;0.20;;
20986;SDS011;10652;50.306;8.570;2023-04-12T17:24:42;0.68;;;0.30;;
20986;SDS011;10652;50.306;8.570;2023-04-12T17:28:44;1.45;;;0.40;;
20986;SDS011;10652;50.306;8.570;2023-04-12T17:32:46;0.38;;;0.38;;
20986;SDS011;10652;50.306;8.570;2023-04-12T17:36:49;0.75;;;0.50;;
20986;SDS011;10652;50.306;8.570;2023-04-12T17:40:51;0.30;;;0.30;;
20986;SDS011;10652;50.306;8.570;2023-04-12T17:44:53;1.05;;;0.60;;
20986;SDS011;10652;50.306;8.570;2023-04-12T17:48:55;3.50;;;0.77;;
20986;SDS011;10652;50.306;8.570;2023-04-12T17:52:59;1.73;;;0.55;;
20986;SDS011;10652;50.306;8.570;2023-04-12T17:57:02;1.13;;;0.40;;
20986;SDS011;10652;50.306;8.570;2023-04-12T18:01:05;0.75;;;0.50;;
20986;SDS011;10652;50.306;8.570;2023-04-12T18:05:07;1.02;;;0.40;;
20986;SDS011;10652;50.306;8.570;2023-04-12T18:09:10;1.00;;;0.40;;
20986;SDS011;10652;50.306;8.570;2023-04-12T18:13:13;0.68;;;0.30;;
20986;SDS011;10652;50.306;8.570;2023-04-12T18:17:15;1.10;;;0.40;;
20986;SDS011;10652;50.306;8.570;2023-04-12T18:21:17;1.67;;;0.50;;
20986;SDS011;10652;50.306;8.570;2023-04-12T18:25:22;2.00;;;0.50;;
20986;SDS011;10652;50.306;8.570;2023-04-12T18:29:24;3.30;;;0.50;;
20986;SDS011;10652;50.306;8.570;2023-04-12T18:33:27;0.68;;;0.50;;
20986;SDS011;10652;50.306;8.570;2023-04-12T18:37:30;3.08;;;0.50;;
20986;SDS011;10652;50.306;8.570;2023-04-12T18:41:33;1.35;;;0.32;;
20986;SDS011;10652;50.306;8.570;2023-04-12T18:45:38;1.23;;;0.50;;
20986;SDS011;10652;50.306;8.570;2023-04-12T18:49:41;0.40;;;0.40;;
20986;SDS011;10652;50.306;8.570;2023-04-12T18:53:43;0.55;;;0.30;;
20986;SDS011;10652;50.306;8.570;2023-04-12T18:57:45;0.80;;;0.30;;
20986;SDS011;10652;50.306;8.570;2023-04-12T19:01:50;0.50;;;0.20;;
20986;SDS011;10652;50.306;8.570;2023-04-12T19:05:55;0.50;;;0.25;;
20986;SDS011;10652;50.306;8.570;2023-04-12T19:09:58;0.20;;;0.20;;
20986;SDS011;10652;50.306;8.570;2023-04-12T19:14:00;1.20;;;0.55;;
20986;SDS011;10652;50.306;8.570;2023-04-12T19:18:02;0.60;;;0.20;;
20986;SDS011;10652;50.306;8.570;2023-04-12T19:22:05;0.40;;;0.30;;
20986;SDS011;10652;50.306;8.570;2023-04-12T19:26:07;1.50;;;0.28;;
20986;SDS011;10652;50.306;8.570;2023-04-12T19:30:09;0.50;;;0.20;;
20986;SDS011;10652;50.306;8.570;2023-04-12T19:34:13;0.95;;;0.30;;
20986;SDS011;10652;50.306;8.570;2023-04-12T19:38:18;0.28;;;0.13;;
20986;SDS011;10652;50.306;8.570;2023-04-12T19:42:21;0.90;;;0.30;;
20986;SDS011;10652;50.306;8.570;2023-04-12T19:46:24;0.85;;;0.40;;
20986;SDS011;10652;50.306;8.570;2023-04-12T19:50:27;1.52;;;0.20;;
20986;SDS011;10652;50.306;8.570;2023-04-12T19:54:31;0.90;;;0.20;;
20986;SDS011;10652;50.306;8.570;2023-04-12T19:58:34;0.70;;;0.20;;
20986;SDS011;10652;50.306;8.570;2023-04-12T20:02:36;0.68;;;0.30;;
20986;SDS011;10652;50.306;8.570;2023-04-12T20:06:38;0.38;;;0.30;;
20986;SDS011;10652;50.306;8.570;2023-04-12T20:10:42;1.08;;;0.60;;
20986;SDS011;10652;50.306;8.570;2023-04-12T20:14:44;1.38;;;0.30;;
20986;SDS011;10652;50.306;8.570;2023-04-12T20:18:46;1.77;;;0.40;;
20986;SDS011;10652;50.306;8.570;2023-04-12T20:22:48;1.10;;;0.50;;
20986;SDS011;10652;50.306;8.570;2023-04-12T20:26:53;1.27;;;0.80;;
20986;SDS011;10652;50.306;8.570;2023-04-12T20:30:55;0.65;;;0.30;;
20986;SDS011;10652;50.306;8.570;2023-04-12T20:34:58;0.88;;;0.20;;
20986;SDS011;10652;50.306;8.570;2023-04-12T20:39:00;0.40;;;0.20;;
20986;SDS011;10652;50.306;8.570;2023-04-12T20:43:03;1.70;;;1.00;;
20986;SDS011;10652;50.306;8.570;2023-04-12T20:47:06;2.83;;;1.45;;
20986;SDS011;10652;50.306;8.570;2023-04-12T20:51:09;2.03;;;1.13;;
20986;SDS011;10652;50.306;8.570;2023-04-12T20:55:17;2.63;;;1.25;;
20986;SDS011;10652;50.306;8.570;2023-04-12T20:59:19;1.65;;;0.88;;
20986;SDS011;10652;50.306;8.570;2023-04-12T21:03:24;1.00;;;0.60;;
20986;SDS011;10652;50.306;8.570;2023-04-12T21:07:28;1.25;;;0.40;;
20986;SDS011;10652;50.306;8.570;2023-04-12T21:11:30;0.38;;;0.20;;
20986;SDS011;10652;50.306;8.570;2023-04-12T21:15:32;0.52;;;0.20;;
20986;SDS011;10652;50.306;8.570;2023-04-12T21:19:36;0.28;;;0.10;;
20986;SDS011;10652;50.306;8.570;2023-04-12T21:23:42;1.37;;;0.60;;
20986;SDS011;10652;50.306;8.570;2023-04-12T21:27:44;0.95;;;0.20;;
20986;SDS011;10652;50.306;8.570;2023-04-12T21:31:47;0.57;;;0.20;;
20986;SDS011;10652;50.306;8.570;2023-04-12T21:35:50;0.77;;;0.30;;
20986;SDS011;10652;50.306;8.570;2023-04-12T21:39:55;0.90;;;0.50;;
20986;SDS011;10652;50.306;8.570;2023-04-12T21:43:57;1.20;;;0.60;;
20986;SDS011;10652;50.306;8.570;2023-04-12T21:47:59;1.75;;;0.82;;
20986;SDS011;10652;50.306;8.570;2023-04-12T21:52:02;1.58;;;1.10;;
20986;SDS011;10652;50.306;8.570;2023-04-12T21:56:04;1.70;;;0.70;;
20986;SDS011;10652;50.306;8.570;2023-04-12T22:00:07;1.83;;;0.70;;
20986;SDS011;10652;50.306;8.570;2023-04-12T22:04:13;1.50;;;0.70;;
20986;SDS011;10652;50.306;8.570;2023-04-12T22:08:15;2.65;;;0.50;;
20986;SDS011;10652;50.306;8.570;2023-04-12T22:12:17;1.67;;;0.50;;
20986;SDS011;10652;50.306;8.570;2023-04-12T22:16:19;1.10;;;0.40;;
20986;SDS011;10652;50.306;8.570;2023-04-12T22:20:23;1.60;;;0.55;;
20986;SDS011;10652;50.306;8.570;2023-04-12T22:24:29;1.27;;;0.60;;
20986;SDS011;10652;50.306;8.570;2023-04-12T22:28:31;1.70;;;0.80;;
20986;SDS011;10652;50.306;8.570;2023-04-12T22:32:33;1.08;;;0.80;;
20986;SDS011;10652;50.306;8.570;2023-04-12T22:36:35;1.85;;;0.80;;
20986;SDS011;10652;50.306;8.570;2023-04-12T22:40:44;1.98;;;0.40;;
20986;SDS011;10652;50.306;8.570;2023-04-12T22:44:47;1.67;;;0.90;;
20986;SDS011;10652;50.306;8.570;2023-04-12T22:48:50;2.90;;;0.50;;
20986;SDS011;10652;50.306;8.570;2023-04-12T22:52:52;1.00;;;0.60;;
20986;SDS011;10652;50.306;8.570;2023-04-12T22:56:55;1.33;;;0.52;;
20986;SDS011;10652;50.306;8.570;2023-04-12T23:00:57;0.68;;;0.45;;
20986;SDS011;10652;50.306;8.570;2023-04-12T23:04:59;0.63;;;0.47;;
20986;SDS011;10652;50.306;8.570;2023-04-12T23:09:03;1.70;;;0.45;;
20986;SDS011;10652;50.306;8.570;2023-04-12T23:13:07;0.57;;;0.30;;
20986;SDS011;10652;50.306;8.570;2023-04-12T23:17:10;0.55;;;0.40;;
20986;SDS011;10652;50.306;8.570;2023-04-12T23:21:12;1.05;;;0.30;;
20986;SDS011;10652;50.306;8.570;2023-04-12T23:25:14;0.50;;;0.32;;
20986;SDS011;10652;50.306;8.570;2023-04-12T23:29:16;2.20;;;0.60;;
20986;SDS011;10652;50.306;8.570;2023-04-12T23:33:19;1.73;;;0.40;;
20986;SDS011;10652;50.306;8.570;2023-04-12T23:37:21;1.70;;;0.50;;
20986;SDS011;10652;50.306;8.570;2023-04-12T23:41:23;0.75;;;0.40;;
20986;SDS011;10652;50.306;8.570;2023-04-12T23:45:26;0.75;;;0.28;;
20986;SDS011;10652;50.306;8.570;2023-04-12T23:49:28;0.35;;;0.22;;
20986;SDS011;10652;50.306;8.570;2023-04-12T23:53:30;2.47;;;0.50;;
20986;SDS011;10652;50.306;8.570;2023-04-12T23:57:33;1.30;;;0.40;;
